createdAt,value
2017-11-28T00:01:34.907Z,82.30
2017-11-28T00:04:01.899Z,82.30
2017-11-28T00:06:29.211Z,82.40
2017-11-28T00:08:56.122Z,82.40
2017-11-28T00:11:23.015Z,82.60
2017-11-28T00:13:49.929Z,82.40
2017-11-28T00:16:16.843Z,82.40
2017-11-28T00:18:44.126Z,82.50
2017-11-28T00:21:11.079Z,82.50
2017-11-28T00:23:37.962Z,82.50
2017-11-28T00:26:04.882Z,82.60
2017-11-28T00:28:31.771Z,82.50
2017-11-28T00:30:59.102Z,82.80
2017-11-28T00:33:25.994Z,82.80
2017-11-28T00:35:52.882Z,83.10
2017-11-28T00:38:19.860Z,83.10
2017-11-28T00:40:46.751Z,82.70
2017-11-28T00:43:13.659Z,83.10
2017-11-28T00:45:40.945Z,83.20
2017-11-28T00:48:07.864Z,83.20
2017-11-28T00:50:35.142Z,83.00
2017-11-28T00:53:02.030Z,83.00
2017-11-28T00:55:28.959Z,82.70
2017-11-28T00:57:55.852Z,82.40
2017-11-28T01:00:23.200Z,82.60
2017-11-28T01:02:50.100Z,82.60
2017-11-28T01:05:16.987Z,83.00
2017-11-28T01:07:43.910Z,83.10
2017-11-28T01:10:10.802Z,83.30
2017-11-28T01:12:37.719Z,83.50
2017-11-28T01:15:04.622Z,83.80
2017-11-28T01:17:31.542Z,83.90
2017-11-28T01:19:58.447Z,83.90
2017-11-28T01:22:25.334Z,84.40
2017-11-28T01:24:52.246Z,84.40
2017-11-28T01:27:19.148Z,84.40
2017-11-28T01:29:46.063Z,84.70
2017-11-28T01:32:13.583Z,85.20
2017-11-28T01:34:40.467Z,85.20
2017-11-28T01:37:07.814Z,84.80
2017-11-28T01:39:34.679Z,84.80
2017-11-28T01:42:01.596Z,84.90
2017-11-28T01:44:28.543Z,85.10
2017-11-28T01:46:55.867Z,84.50
2017-11-28T01:49:22.790Z,84.50
2017-11-28T01:51:49.679Z,84.60
2017-11-28T01:54:16.564Z,84.80
2017-11-28T01:56:43.476Z,84.90
2017-11-28T01:59:10.380Z,84.90
2017-11-28T02:01:37.280Z,84.80
2017-11-28T02:04:04.603Z,85.50
2017-11-28T02:06:31.484Z,85.50
2017-11-28T02:08:58.762Z,85.40
2017-11-28T02:11:25.678Z,85.40
2017-11-28T02:13:52.957Z,85.20
2017-11-28T02:16:19.835Z,85.20
2017-11-28T02:18:46.753Z,85.30
2017-11-28T02:21:13.703Z,85.40
2017-11-28T02:23:40.642Z,85.20
2017-11-28T02:26:07.547Z,84.90
2017-11-28T02:28:34.444Z,85.40
2017-11-28T02:31:01.389Z,85.40
2017-11-28T02:33:28.271Z,85.50
2017-11-28T02:35:55.188Z,85.40
2017-11-28T02:38:22.083Z,85.70
2017-11-28T02:41:01.385Z,85.30
2017-11-28T02:43:28.263Z,85.30
2017-11-28T02:45:55.543Z,85.10
2017-11-28T02:48:22.488Z,85.10
2017-11-28T02:50:49.399Z,85.20
2017-11-28T02:53:16.316Z,85.40
2017-11-28T02:55:54.013Z,85.20
2017-11-28T02:58:22.748Z,85.30
2017-11-28T03:00:54.758Z,85.40
2017-11-28T03:03:21.647Z,85.40
2017-11-28T03:05:48.559Z,85.40
2017-11-28T03:08:15.473Z,85.40
2017-11-28T03:10:48.103Z,85.40
2017-11-28T03:13:15.780Z,85.50
2017-11-28T03:15:42.658Z,85.30
2017-11-28T03:18:10.260Z,85.30
2017-11-28T03:20:39.791Z,85.50
2017-11-28T03:26:04.796Z,85.50
2017-11-28T03:28:39.302Z,85.70
2017-11-28T03:31:11.665Z,85.90
2017-11-28T03:33:38.584Z,85.80
2017-11-28T03:36:06.023Z,85.40
2017-11-28T03:38:32.911Z,85.40
2017-11-28T03:40:59.790Z,85.30
2017-11-28T03:43:26.699Z,85.30
2017-11-28T03:45:56.202Z,85.50
2017-11-28T03:48:23.151Z,85.50
2017-11-28T03:50:50.046Z,85.50
2017-11-28T03:53:16.981Z,85.70
2017-11-28T03:55:43.868Z,85.80
2017-11-28T03:58:11.182Z,85.70
2017-11-28T04:00:38.067Z,85.70
2017-11-28T04:03:05.346Z,85.40
2017-11-28T04:05:32.259Z,85.40
2017-11-28T04:07:59.558Z,85.60
2017-11-28T04:10:26.450Z,85.60
2017-11-28T04:12:53.487Z,85.70
2017-11-28T04:15:20.375Z,85.60
2017-11-28T04:17:47.265Z,85.40
2017-11-28T04:20:14.180Z,85.30
2017-11-28T04:22:41.120Z,85.10
2017-11-28T04:25:08.039Z,85.00
2017-11-28T04:27:35.319Z,85.00
2017-11-28T04:30:02.207Z,85.00
2017-11-28T04:32:29.123Z,85.20
2017-11-28T04:34:56.057Z,85.70
2017-11-28T04:37:22.977Z,85.70
2017-11-28T04:39:50.265Z,84.60
2017-11-28T04:42:17.174Z,84.70
2017-11-28T04:44:44.487Z,85.90
2017-11-28T04:47:11.367Z,85.90
2017-11-28T04:49:38.666Z,85.70
2017-11-28T04:52:05.559Z,85.70
2017-11-28T04:54:32.478Z,85.60
2017-11-28T04:56:59.377Z,85.70
2017-11-28T04:59:26.282Z,85.70
2017-11-28T05:01:53.199Z,85.80
2017-11-28T05:04:20.078Z,85.60
2017-11-28T05:06:46.963Z,85.50
2017-11-28T05:09:13.880Z,85.90
2017-11-28T05:11:41.173Z,85.90
2017-11-28T05:14:08.060Z,85.90
2017-11-28T05:16:34.972Z,86.00
2017-11-28T05:19:02.076Z,86.40
2017-11-28T05:21:29.371Z,86.20
2017-11-28T05:23:56.258Z,86.20
2017-11-28T05:26:23.189Z,85.90
2017-11-28T05:28:50.076Z,85.80
2017-11-28T05:31:17.364Z,85.80
2017-11-28T05:33:44.266Z,85.80
2017-11-28T05:36:11.550Z,85.80
2017-11-28T05:38:38.461Z,85.80
2017-11-28T05:41:05.334Z,85.80
2017-11-28T05:43:32.241Z,85.70
2017-11-28T05:45:59.167Z,85.80
2017-11-28T05:48:26.985Z,85.80
2017-11-28T05:50:53.960Z,86.00
2017-11-28T05:53:21.658Z,86.00
2017-11-28T05:55:48.544Z,86.00
2017-11-28T05:58:15.856Z,86.40
2017-11-28T06:00:42.747Z,86.40
2017-11-28T06:03:09.636Z,86.30
2017-11-28T06:05:36.551Z,86.10
2017-11-28T06:08:13.003Z,86.10
2017-11-28T06:10:39.892Z,85.90
2017-11-28T06:13:06.786Z,85.70
2017-11-28T06:15:34.087Z,85.60
2017-11-28T06:18:01.023Z,85.60
2017-11-28T06:20:27.946Z,85.60
2017-11-28T06:22:54.827Z,85.70
2017-11-28T06:25:21.718Z,86.50
2017-11-28T06:27:49.026Z,86.00
2017-11-28T06:30:15.908Z,86.20
2017-11-28T06:32:42.819Z,85.70
2017-11-28T06:35:09.707Z,85.50
2017-11-28T06:37:36.986Z,85.40
2017-11-28T06:40:03.903Z,85.40
2017-11-28T06:42:30.790Z,85.40
2017-11-28T06:44:57.700Z,85.50
2017-11-28T06:47:25.004Z,85.30
2017-11-28T06:49:51.900Z,85.30
2017-11-28T06:52:19.204Z,85.00
2017-11-28T06:54:46.096Z,85.00
2017-11-28T06:57:13.435Z,84.70
2017-11-28T07:00:02.904Z,84.70
2017-11-28T07:05:18.978Z,85.10
2017-11-28T07:07:45.867Z,85.20
2017-11-28T07:10:12.783Z,85.10
2017-11-28T07:12:39.711Z,85.20
2017-11-28T07:15:06.595Z,85.30
2017-11-28T07:17:33.528Z,85.30
2017-11-28T07:20:00.433Z,85.20
2017-11-28T07:22:27.736Z,84.70
2017-11-28T07:24:54.651Z,84.70
2017-11-28T07:27:21.540Z,84.80
2017-11-28T07:29:48.436Z,84.70
2017-11-28T07:32:15.352Z,84.70
2017-11-28T07:34:42.635Z,85.60
2017-11-28T07:37:09.556Z,85.60
2017-11-28T07:39:36.832Z,86.40
2017-11-28T07:42:03.710Z,86.40
2017-11-28T07:44:30.630Z,86.40
2017-11-28T07:46:57.511Z,86.20
2017-11-28T07:49:24.442Z,86.20
2017-11-28T07:51:51.341Z,86.70
2017-11-28T07:54:18.619Z,88.00
2017-11-28T07:56:45.555Z,88.00
2017-11-28T07:59:12.498Z,87.90
2017-11-28T08:01:39.405Z,87.30
2017-11-28T08:04:06.332Z,86.80
2017-11-28T08:06:33.235Z,87.20
2017-11-28T08:09:00.116Z,87.70
2017-11-28T08:11:27.044Z,87.30
2017-11-28T08:13:53.931Z,87.60
2017-11-28T08:16:20.815Z,87.40
2017-11-28T08:18:47.722Z,87.40
2017-11-28T08:21:14.612Z,87.00
2017-11-28T08:23:41.573Z,87.30
2017-11-28T08:26:08.456Z,87.00
2017-11-28T08:28:35.338Z,85.70
2017-11-28T08:31:02.640Z,86.40
2017-11-28T08:33:29.523Z,86.40
2017-11-28T08:35:56.830Z,86.60
2017-11-28T08:38:23.711Z,86.50
2017-11-28T08:40:50.628Z,86.50
2017-11-28T08:43:17.516Z,86.70
2017-11-28T08:45:44.820Z,86.50
2017-11-28T08:48:11.699Z,86.50
2017-11-28T08:50:38.608Z,86.40
2017-11-28T08:53:05.516Z,86.10
2017-11-28T08:55:32.917Z,85.10
2017-11-28T08:57:59.835Z,85.10
2017-11-28T09:00:26.772Z,85.50
2017-11-28T09:02:53.659Z,85.70
2017-11-28T09:05:20.545Z,86.30
2017-11-28T09:07:47.856Z,86.80
2017-11-28T09:10:14.762Z,86.80
2017-11-28T09:12:42.068Z,86.50
2017-11-28T09:15:08.956Z,86.50
2017-11-28T09:17:36.279Z,86.60
2017-11-28T09:20:03.159Z,86.60
2017-11-28T09:22:30.535Z,85.60
2017-11-28T09:24:57.444Z,85.60
2017-11-28T09:27:24.342Z,85.70
2017-11-28T09:29:51.263Z,85.70
2017-11-28T09:32:18.165Z,85.80
2017-11-28T09:34:45.072Z,85.70
2017-11-28T09:37:12.115Z,84.90
2017-11-28T09:39:39.026Z,85.30
2017-11-28T09:42:06.316Z,86.00
2017-11-28T09:44:33.227Z,86.00
2017-11-28T09:47:00.507Z,85.80
2017-11-28T09:49:27.418Z,85.80
2017-11-28T09:51:54.337Z,85.40
2017-11-28T09:54:21.223Z,85.70
2017-11-28T09:56:48.536Z,84.90
2017-11-28T09:59:15.448Z,84.90
2017-11-28T10:01:42.337Z,84.50
2017-11-28T10:04:09.251Z,83.00
2017-11-28T10:06:36.168Z,82.30
2017-11-28T10:09:03.075Z,82.70
2017-11-28T10:11:29.959Z,83.00
2017-11-28T10:13:56.865Z,82.90
2017-11-28T10:16:23.786Z,82.90
2017-11-28T10:18:50.717Z,82.80
2017-11-28T10:21:17.628Z,83.90
2017-11-28T10:23:44.911Z,83.20
2017-11-28T10:26:11.836Z,83.20
2017-11-28T10:28:39.123Z,83.00
2017-11-28T10:31:06.004Z,83.10
2017-11-28T10:33:33.009Z,82.30
2017-11-28T10:35:59.914Z,82.50
2017-11-28T10:38:27.231Z,80.70
2017-11-28T10:40:54.119Z,80.70
2017-11-28T10:43:21.427Z,80.90
2017-11-28T10:45:48.311Z,80.90
2017-11-28T10:48:15.235Z,80.30
2017-11-28T10:50:42.246Z,79.50
2017-11-28T10:53:09.174Z,80.20
2017-11-28T10:55:36.475Z,79.10
2017-11-28T10:58:03.397Z,79.10
2017-11-28T11:00:30.303Z,78.60
2017-11-28T11:02:57.195Z,78.50
2017-11-28T11:05:24.114Z,79.20
2017-11-28T11:07:50.990Z,78.60
2017-11-28T11:10:17.881Z,79.00
2017-11-28T11:12:45.193Z,79.40
2017-11-28T11:15:12.129Z,79.40
2017-11-28T11:17:39.041Z,79.70
2017-11-28T11:20:06.352Z,76.30
2017-11-28T11:22:33.243Z,76.20
2017-11-28T11:25:00.524Z,76.70
2017-11-28T11:27:27.447Z,76.70
2017-11-28T11:29:54.722Z,77.50
2017-11-28T11:32:21.656Z,77.50
2017-11-28T11:34:48.566Z,75.30
2017-11-28T11:37:15.465Z,74.30
2017-11-28T11:39:42.407Z,74.50
2017-11-28T11:42:09.305Z,74.00
2017-11-28T11:44:36.208Z,74.30
2017-11-28T11:47:03.087Z,74.80
2017-11-28T11:49:30.040Z,73.70
2017-11-28T11:51:56.919Z,75.50
2017-11-28T11:54:23.830Z,75.20
2017-11-28T11:56:50.757Z,76.00
2017-11-28T11:59:17.662Z,74.50
2017-11-28T12:01:44.584Z,74.70
2017-11-28T12:04:11.503Z,74.50
2017-11-28T12:06:38.395Z,74.20
2017-11-28T12:09:05.308Z,72.60
2017-11-28T12:11:32.297Z,72.30
2017-11-28T12:13:59.247Z,72.80
2017-11-28T12:16:26.128Z,72.90
2017-11-28T12:18:53.040Z,74.10
2017-11-28T12:21:19.931Z,73.70
2017-11-28T12:23:46.849Z,72.90
2017-11-28T12:26:13.761Z,72.60
2017-11-28T12:28:40.643Z,73.10
2017-11-28T12:31:07.548Z,73.30
2017-11-28T12:33:34.825Z,74.10
2017-11-28T12:36:01.735Z,74.10
2017-11-28T12:38:29.006Z,74.10
2017-11-28T12:40:55.891Z,74.10
2017-11-28T12:43:22.803Z,73.90
2017-11-28T12:45:49.691Z,73.40
2017-11-28T12:48:16.626Z,74.00
2017-11-28T12:50:43.514Z,73.50
2017-11-28T12:53:10.900Z,73.30
2017-11-28T12:55:37.847Z,73.30
2017-11-28T12:58:04.759Z,72.80
2017-11-28T13:00:32.152Z,72.90
2017-11-28T13:02:59.059Z,72.90
2017-11-28T13:05:26.359Z,73.90
2017-11-28T13:07:53.235Z,73.90
2017-11-28T13:10:20.151Z,73.70
2017-11-28T13:12:47.059Z,73.80
2017-11-28T13:15:14.370Z,75.20
2017-11-28T13:17:41.283Z,75.20
2017-11-28T13:20:08.207Z,75.20
2017-11-28T13:22:35.503Z,74.60
2017-11-28T13:25:02.411Z,74.60
2017-11-28T13:27:29.787Z,75.40
2017-11-28T13:29:56.691Z,75.40
2017-11-28T13:32:23.611Z,74.40
2017-11-28T13:34:50.508Z,73.80
2017-11-28T13:37:17.394Z,73.20
2017-11-28T13:39:44.307Z,73.10
2017-11-28T13:42:11.194Z,73.10
2017-11-28T13:44:38.080Z,72.20
2017-11-28T13:47:05.390Z,72.00
2017-11-28T13:49:32.313Z,72.00
2017-11-28T13:51:59.205Z,72.10
2017-11-28T13:54:26.115Z,71.40
2017-11-28T13:56:53.145Z,70.10
2017-11-28T13:59:20.060Z,70.80
2017-11-28T14:01:47.403Z,71.10
2017-11-28T14:04:14.284Z,71.20
2017-11-28T14:06:41.202Z,70.20
2017-11-28T14:09:08.578Z,69.90
2017-11-28T14:11:35.516Z,69.90
2017-11-28T14:14:02.830Z,70.10
2017-11-28T14:16:30.047Z,70.10
2017-11-28T14:18:56.950Z,69.90
2017-11-28T14:21:23.875Z,70.10
2017-11-28T14:23:50.760Z,70.50
2017-11-28T14:26:18.059Z,70.60
2017-11-28T14:28:44.959Z,70.60
2017-11-28T14:31:12.260Z,69.70
2017-11-28T14:33:39.173Z,69.70
2017-11-28T14:36:06.084Z,70.50
2017-11-28T14:38:32.976Z,70.90
2017-11-28T14:40:59.922Z,70.90
2017-11-28T14:43:26.821Z,71.40
2017-11-28T14:45:53.743Z,70.60
2017-11-28T14:48:20.670Z,70.40
2017-11-28T14:50:47.551Z,71.30
2017-11-28T14:53:14.448Z,71.00
2017-11-28T14:55:41.360Z,71.30
2017-11-28T14:58:08.684Z,70.50
2017-11-28T15:00:35.578Z,70.50
2017-11-28T15:03:02.468Z,70.70
2017-11-28T15:05:29.488Z,70.80
2017-11-28T15:07:56.377Z,71.60
2017-11-28T15:10:23.284Z,71.50
2017-11-28T15:12:50.186Z,71.10
2017-11-28T15:15:17.467Z,71.40
2017-11-28T15:17:44.370Z,71.40
2017-11-28T15:20:11.289Z,71.00
2017-11-28T15:22:38.198Z,71.30
2017-11-28T15:25:05.476Z,71.40
2017-11-28T15:27:32.386Z,71.40
2017-11-28T15:29:59.668Z,71.10
2017-11-28T15:32:26.575Z,71.10
2017-11-28T15:34:53.875Z,71.60
2017-11-28T15:37:20.781Z,71.60
2017-11-28T15:39:48.086Z,73.80
2017-11-28T15:42:15.074Z,73.80
2017-11-28T15:44:42.129Z,74.20
2017-11-28T15:47:09.427Z,75.10
2017-11-28T15:49:36.302Z,75.10
2017-11-28T15:52:03.312Z,75.30
2017-11-28T15:54:30.262Z,75.10
2017-11-28T15:56:57.165Z,75.40
2017-11-28T15:59:24.475Z,75.90
2017-11-28T16:01:51.374Z,75.90
2017-11-28T16:04:18.683Z,77.00
2017-11-28T16:06:45.754Z,77.00
2017-11-28T16:09:12.647Z,77.60
2017-11-28T16:11:39.602Z,77.80
2017-11-28T16:14:06.490Z,77.90
2017-11-28T16:16:34.141Z,77.80
2017-11-28T16:19:01.043Z,77.60
2017-11-28T16:21:27.947Z,77.50
2017-11-28T16:23:54.859Z,78.10
2017-11-28T16:26:21.754Z,77.90
2017-11-28T16:28:49.058Z,78.50
2017-11-28T16:31:15.980Z,78.50
2017-11-28T16:33:42.875Z,78.60
2017-11-28T16:36:09.763Z,78.70
2017-11-28T16:38:36.727Z,79.50
2017-11-28T16:41:03.641Z,79.50
2017-11-28T16:43:30.944Z,79.40
2017-11-28T16:45:57.827Z,79.40
2017-11-28T16:48:24.760Z,79.30
2017-11-28T16:50:51.683Z,79.60
2017-11-28T16:53:18.587Z,79.50
2017-11-28T16:55:45.875Z,79.80
2017-11-28T16:58:12.784Z,79.80
2017-11-28T17:00:40.060Z,79.90
2017-11-28T17:03:06.955Z,79.90
2017-11-28T17:05:33.871Z,79.90
2017-11-28T17:08:00.759Z,79.80
2017-11-28T17:10:27.644Z,79.80
2017-11-28T17:12:54.559Z,79.70
2017-11-28T17:15:21.864Z,78.90
2017-11-28T17:17:48.859Z,78.90
2017-11-28T17:20:16.162Z,79.30
2017-11-28T17:22:43.057Z,79.30
2017-11-28T17:25:10.504Z,79.40
2017-11-28T17:27:37.400Z,79.40
2017-11-28T17:30:04.283Z,79.30
2017-11-28T17:32:31.209Z,79.50
2017-11-28T17:34:58.098Z,79.60
2017-11-28T17:37:25.375Z,79.20
2017-11-28T17:39:52.279Z,79.20
2017-11-28T17:42:19.191Z,78.80
2017-11-28T17:44:46.069Z,79.10
2017-11-28T17:47:13.033Z,79.20
2017-11-28T17:49:40.355Z,79.20
2017-11-28T17:52:07.243Z,79.20
2017-11-28T17:54:34.520Z,79.20
2017-11-28T17:57:01.447Z,79.20
2017-11-28T17:59:28.739Z,79.30
2017-11-28T18:01:55.631Z,79.30
2017-11-28T18:04:22.550Z,79.10
2017-11-28T18:06:49.467Z,79.00
2017-11-28T18:09:16.358Z,79.20
2017-11-28T18:11:43.274Z,79.30
2017-11-28T18:14:10.161Z,79.80
2017-11-28T18:16:37.454Z,80.30
2017-11-28T18:19:04.371Z,80.30
2017-11-28T18:21:31.676Z,80.60
2017-11-28T18:23:58.555Z,80.60
2017-11-28T18:26:25.508Z,80.10
2017-11-28T18:28:52.815Z,79.90
2017-11-28T18:31:19.735Z,79.90
2017-11-28T18:33:46.639Z,79.80
2017-11-28T18:36:13.537Z,79.70
2017-11-28T18:38:40.449Z,80.00
2017-11-28T18:41:07.796Z,80.70
2017-11-28T18:43:35.115Z,80.90
2017-11-28T18:46:02.011Z,80.90
2017-11-28T18:48:29.320Z,80.90
2017-11-28T18:50:56.339Z,80.90
2017-11-28T18:53:23.279Z,80.50
2017-11-28T18:55:50.158Z,80.70
2017-11-28T18:58:17.046Z,81.30
2017-11-28T19:00:44.351Z,81.60
2017-11-28T19:03:11.235Z,81.60
2017-11-28T19:05:38.153Z,81.50
2017-11-28T19:08:05.048Z,81.40
2017-11-28T19:10:31.974Z,82.20
2017-11-28T19:12:59.259Z,82.30
2017-11-28T19:15:26.144Z,82.30
2017-11-28T19:17:53.063Z,82.10
2017-11-28T19:20:19.944Z,81.60
2017-11-28T19:22:46.878Z,81.40
2017-11-28T19:25:13.799Z,81.60
2017-11-28T19:27:40.693Z,82.30
2017-11-28T19:30:07.611Z,82.20
2017-11-28T19:32:34.519Z,82.10
2017-11-28T19:35:01.427Z,82.30
2017-11-28T19:37:28.423Z,82.60
2017-11-28T19:39:55.331Z,82.50
2017-11-28T19:42:22.643Z,81.80
2017-11-28T19:44:49.523Z,81.80
2017-11-28T19:47:16.444Z,81.80
2017-11-28T19:49:43.334Z,82.10
2017-11-28T19:52:10.611Z,81.40
2017-11-28T19:54:37.519Z,81.40
2017-11-28T19:57:04.419Z,81.80
2017-11-28T19:59:31.333Z,82.40
2017-11-28T20:01:58.616Z,82.00
2017-11-28T20:04:25.544Z,82.10
2017-11-28T20:06:52.496Z,82.00
2017-11-28T20:09:19.382Z,81.60
2017-11-28T20:11:46.298Z,82.00
2017-11-28T20:14:13.182Z,82.00
2017-11-28T20:16:40.181Z,81.60
2017-11-28T20:19:07.109Z,81.20
2017-11-28T20:21:33.999Z,81.60
2017-11-28T20:24:01.222Z,81.40
2017-11-28T20:26:28.131Z,81.30
2017-11-28T20:28:55.116Z,80.70
2017-11-28T20:31:22.029Z,80.90
2017-11-28T20:33:49.315Z,81.50
2017-11-28T20:36:16.227Z,81.50
2017-11-28T20:38:43.525Z,81.40
2017-11-28T20:41:10.441Z,81.50
2017-11-28T20:43:37.727Z,81.50
2017-11-28T20:46:04.647Z,81.50
2017-11-28T20:48:31.539Z,81.40
2017-11-28T20:50:58.424Z,81.50
2017-11-28T20:53:25.726Z,81.60
2017-11-28T20:55:52.638Z,81.60
2017-11-28T20:58:19.528Z,81.40
2017-11-28T21:00:46.440Z,81.40
2017-11-28T21:03:13.360Z,81.10
2017-11-28T21:05:40.256Z,80.60
2017-11-28T21:08:07.147Z,81.10
2017-11-28T21:10:34.469Z,81.50
2017-11-28T21:13:01.357Z,81.60
2017-11-28T21:15:28.264Z,81.70
2017-11-28T21:17:55.148Z,81.80
2017-11-28T21:20:22.453Z,82.00
2017-11-28T21:22:49.366Z,82.00
2017-11-28T21:25:16.251Z,82.10
2017-11-28T21:27:43.154Z,82.10
2017-11-28T21:30:10.043Z,81.40
2017-11-28T21:32:37.394Z,81.60
2017-11-28T21:35:04.279Z,81.60
2017-11-28T21:37:31.583Z,82.10
2017-11-28T21:39:58.470Z,82.10
2017-11-28T21:42:25.783Z,82.10
2017-11-28T21:44:52.670Z,82.10
2017-11-28T21:47:19.963Z,81.30
2017-11-28T21:49:46.867Z,81.30
2017-11-28T21:52:13.781Z,81.80
2017-11-28T21:54:40.670Z,81.60
2017-11-28T21:57:07.991Z,81.70
2017-11-28T21:59:34.927Z,81.70
2017-11-28T22:02:02.154Z,81.70
2017-11-28T22:04:29.031Z,81.80
2017-11-28T22:06:55.949Z,81.60
2017-11-28T22:09:22.832Z,81.20
2017-11-28T22:11:49.723Z,81.00
2017-11-28T22:14:16.684Z,81.10
2017-11-28T22:16:43.575Z,81.40
2017-11-28T22:19:10.491Z,81.20
2017-11-28T22:21:37.371Z,81.10
2017-11-28T22:24:04.258Z,81.20
2017-11-28T22:26:31.166Z,81.30
2017-11-28T22:28:58.054Z,81.30
2017-11-28T22:31:24.989Z,81.40
2017-11-28T22:33:51.875Z,81.30
2017-11-28T22:36:18.777Z,81.20
2017-11-28T22:38:45.684Z,81.30
2017-11-28T22:41:12.567Z,81.30
2017-11-28T22:43:39.501Z,81.40
2017-11-28T22:46:06.771Z,80.80
2017-11-28T22:48:33.653Z,80.90
2017-11-28T22:51:00.568Z,80.90
2017-11-28T22:53:27.492Z,81.00
2017-11-28T22:55:54.418Z,81.30
2017-11-28T22:58:21.339Z,81.30
2017-11-28T23:00:48.431Z,81.20
2017-11-28T23:03:15.735Z,81.00
2017-11-28T23:05:42.650Z,81.00
2017-11-28T23:08:09.536Z,81.20
2017-11-28T23:10:36.444Z,81.50
2017-11-28T23:13:03.354Z,81.50
2017-11-28T23:15:30.236Z,81.60
2017-11-28T23:17:57.139Z,81.60
2017-11-28T23:20:24.028Z,81.60
2017-11-28T23:22:50.943Z,81.70
2017-11-28T23:25:18.247Z,81.80
2017-11-28T23:27:45.127Z,81.80
2017-11-28T23:30:12.044Z,81.70
2017-11-28T23:32:38.950Z,82.10
2017-11-28T23:35:05.835Z,82.30
2017-11-28T23:37:32.750Z,81.60
2017-11-28T23:39:59.639Z,81.20
2017-11-28T23:42:26.547Z,81.30
2017-11-28T23:44:53.438Z,81.80
2017-11-28T23:47:20.344Z,82.20
2017-11-28T23:49:47.228Z,82.40
2017-11-28T23:52:14.143Z,81.90
2017-11-28T23:54:41.031Z,81.80
2017-11-28T23:57:07.955Z,81.70
2017-11-28T23:59:34.857Z,81.60
